Terminal Aerodrome Forecast
Issued by NWS

Home | Current Version | Previous Version | Text Only | Print | Product List | Glossary On
Versions: 1 2 3 4 5 6 7 8 9 10 11 12 13 14 15 16 17 18 19 20 21 22 23
000
FTUS44 KBMX 271139
TAFANB
TAF
KANB 271139Z 2712/2812 VRB03KT P6SM SCT010 OVC015
     FM271500 14005KT P6SM BKN025
     FM272100 13008KT P6SM -SHRA VCTS FEW025 BKN035CB
      TEMPO 2723/2802 2SM TSRA SCT015 BKN025CB
     FM280400 VRB03KT P6SM BKN120=

USA.gov is the U.S. government's official web portal to all federal, state and local government web resources and services.